Atlantic Legend — 3FPJ7 — position and weather

sailwx.info

Track history (hours):
 
Tides and Currents Weather Stations Pressure Air Temp Water Temp Dewpoint Dewpoint Depression Visibility Wind Speed Wind Dir Waves Ship Positions

Atlantic Legend

Last reported at 2017-Dec-11 04:14 UTC. Time now 2017-Dec-13 03:39 UTC.
Position N 27°50' W 096°55'.

Length 229 m; draft 9.2 m.

Type: Other ship. MMSI: 351538000.

Date/timePositionNaut miles runAvg speedWind from/ knotsBaromVisibWave heightAir tempDewpointWater temp
2017-Dec-11 04:14N 27°50' W 096°55'0 0.0
2017-Dec-11 03:59N 27°50' W 096°55'0 0.0
2017-Dec-11 03:29N 27°50' W 096°55'0 0.0
2017-Dec-11 02:59N 27°50' W 096°55'0 0.0
2017-Dec-11 02:29N 27°50' W 096°55'0 0.0
2017-Dec-11 01:59N 27°50' W 096°55'0 0.0
2017-Dec-11 01:29N 27°50' W 096°55'0 0.0
2017-Dec-11 00:59N 27°50' W 096°55'0 0.0
2017-Dec-11 00:26N 27°50' W 096°55'0 0.0
2017-Dec-10 23:59N 27°50' W 096°55'0 0.0
2017-Dec-10 23:29N 27°50' W 096°55'0 0.0
2017-Dec-10 22:59N 27°50' W 096°55'0 0.0
2017-Dec-10 22:29N 27°50' W 096°55'0 0.0
2017-Dec-10 21:59N 27°50' W 096°55'0 0.0
2017-Dec-10 21:29N 27°50' W 096°55'0 0.0
2017-Dec-10 20:59N 27°50' W 096°55'0 0.0
2017-Dec-10 20:29N 27°50' W 096°55'0 0.0
2017-Dec-10 19:59N 27°50' W 096°55'0 0.0
2017-Dec-10 19:29N 27°50' W 096°55'0 0.0
2017-Dec-10 18:59N 27°50' W 096°55'0 0.0
2017-Dec-10 16:08N 27°50' W 096°55'0 0.0
2017-Dec-10 15:59N 27°50' W 096°55'0 0.0
2017-Dec-10 15:26N 27°50' W 096°55'0 0.0
2017-Dec-10 14:59N 27°50' W 096°55'0 0.0
2017-Dec-10 14:29N 27°50' W 096°55'0 0.0
2017-Dec-10 13:59N 27°50' W 096°55'0 0.0
2017-Dec-10 13:29N 27°50' W 096°55'0 0.0
2017-Dec-10 12:56N 27°50' W 096°55'0 0.0
2017-Dec-10 12:29N 27°50' W 096°55'0 0.0
2017-Dec-10 11:59N 27°50' W 096°55'0 0.0
2017-Dec-10 11:29N 27°50' W 096°55'0 0.0
2017-Dec-10 10:59N 27°50' W 096°55'0 0.0
2017-Dec-10 10:29N 27°50' W 096°55'0 0.0
2017-Dec-10 09:59N 27°50' W 096°55'0 0.0
2017-Dec-10 09:29N 27°50' W 096°55'0 0.0
2017-Dec-10 08:56N 27°51' W 096°55'0 0.0
2017-Dec-10 08:29N 27°50' W 096°55'0 0.0
2017-Dec-10 07:59N 27°50' W 096°55'0 0.0
2017-Dec-10 07:29N 27°50' W 096°55'0 0.0
2017-Dec-10 06:56N 27°50' W 096°55'0 0.0
2017-Dec-10 06:29N 27°50' W 096°55'0 0.0
2017-Dec-10 05:59N 27°50' W 096°55'0 0.0
2017-Dec-10 05:29N 27°50' W 096°55'0 0.0
2017-Dec-10 04:59N 27°50' W 096°55'0 0.0
2017-Dec-10 04:29N 27°51' W 096°55'0 0.3
2017-Dec-10 03:59N 27°50' W 096°55'1 1.2
2017-Dec-10 03:30N 27°50' W 096°56'3 5.5
2017-Dec-10 02:59N 27°48' W 096°58'5 9.4
2017-Dec-10 02:29N 27°50' W 097°03'4 9.3
2017-Dec-10 02:00N 27°50' W 097°08'510.3
2017-Dec-10 01:29N 27°49' W 097°14'611.6
2017-Dec-10 01:00N 27°49' W 097°20'4 7.9
2017-Dec-10 00:30N 27°49' W 097°25'2 3.6
2017-Dec-09 23:59N 27°49' W 097°27'1 2.0
2017-Dec-09 23:29N 27°49' W 097°28'0 0.0
2017-Dec-09 22:59N 27°49' W 097°28'0 0.0
2017-Dec-09 22:11N 27°49' W 097°28'0 0.0
2017-Dec-09 21:59N 27°49' W 097°28'0 0.0
2017-Dec-09 21:29N 27°49' W 097°28'0 0.0
2017-Dec-09 20:59N 27°49' W 097°28'0 0.0
2017-Dec-09 20:29N 27°49' W 097°28'0 0.0
2017-Dec-09 14:41N 27°49' W 097°28'0 0.0
2017-Dec-09 14:29N 27°49' W 097°28'0 0.0
2017-Dec-09 13:56N 27°49' W 097°28'0 0.0
2017-Dec-09 13:29N 27°49' W 097°28'0 0.0
2017-Dec-09 12:59N 27°49' W 097°28'0 0.0
2017-Dec-09 12:29N 27°49' W 097°28'0 0.0
2017-Dec-09 11:59N 27°49' W 097°28'0 0.0
2017-Dec-09 11:29N 27°49' W 097°28'0 0.0
2017-Dec-09 10:59N 27°49' W 097°28'0 0.0
2017-Dec-09 10:29N 27°49' W 097°28'0 0.0
2017-Dec-09 09:59N 27°49' W 097°28'0 0.0
2017-Dec-09 09:17N 27°49' W 097°28'0 0.0
2017-Dec-09 08:59N 27°49' W 097°28'0 0.0
2017-Dec-09 08:29N 27°49' W 097°28'0 0.0
2017-Dec-09 07:56N 27°49' W 097°28'0 0.0
2017-Dec-09 07:08N 27°49' W 097°28'0 0.0
2017-Dec-09 06:56N 27°49' W 097°28'0 0.0
2017-Dec-09 06:29N 27°49' W 097°28'0 0.0
2017-Dec-09 05:59N 27°49' W 097°28'0 0.0
2017-Dec-09 05:26N 27°49' W 097°28'0 0.0
2017-Dec-09 04:59N 27°49' W 097°28'0 0.0
2017-Dec-09 04:29N 27°49' W 097°28'0 0.0
2017-Dec-09 03:59N 27°49' W 097°28'0 0.0
2017-Dec-09 03:29N 27°49' W 097°28'0 0.0
2017-Dec-09 02:59N 27°49' W 097°28'0 0.0
2017-Dec-09 02:29N 27°49' W 097°28'0 0.0
2017-Dec-09 01:59N 27°49' W 097°28'0 0.0
2017-Dec-09 01:26N 27°49' W 097°28'0 0.0
2017-Dec-09 00:59N 27°49' W 097°28'0 0.0
2017-Dec-09 00:29N 27°49' W 097°28'0 0.0
2017-Dec-08 23:56N 27°49' W 097°28'0 0.2
2017-Dec-08 23:29N 27°49' W 097°28'2 3.0
2017-Dec-08 22:59N 27°50' W 097°30'1 2.8
2017-Dec-08 22:30N 27°49' W 097°28'5 4.9
2017-Dec-08 21:24N 27°49' W 097°22'511.8
2017-Dec-08 21:00N 27°49' W 097°17'5 9.5
2017-Dec-08 20:29N 27°49' W 097°11'4 8.6
2017-Dec-08 19:59N 27°50' W 097°06'3 7.1
2017-Dec-08 19:29N 27°50' W 097°02'611.7
2017-Dec-08 18:59N 27°48' W 096°56'2 4.4
2017-Dec-08 18:30N 27°47' W 096°54'0 0.2
2017-Dec-08 18:00N 27°47' W 096°54'0 0.0
2017-Dec-08 17:30N 27°47' W 096°54'0 0.0
2017-Dec-08 16:54N 27°47' W 096°54'0 0.0
2017-Dec-08 16:30N 27°47' W 096°54'0 0.0
2017-Dec-08 16:00N 27°47' W 096°54'0 0.0
2017-Dec-08 15:30N 27°47' W 096°54'0 0.0
2017-Dec-08 15:00N 27°47' W 096°54'0 0.0
2017-Dec-08 14:30N 27°47' W 096°54'0 0.1
2017-Dec-08 14:00N 27°47' W 096°54'0 0.0
2017-Dec-08 13:30N 27°47' W 096°54'0 0.0
2017-Dec-08 13:00N 27°47' W 096°54'0 0.0
2017-Dec-08 12:30N 27°47' W 096°54'0 0.0
2017-Dec-08 12:00N 27°47' W 096°54'0 0.0
2017-Dec-08 11:30N 27°47' W 096°54'0 0.0
2017-Dec-08 11:00N 27°47' W 096°54'0 0.0
2017-Dec-08 10:30N 27°47' W 096°54'0 0.0
2017-Dec-08 10:00N 27°47' W 096°54'0 0.0
2017-Dec-08 09:30N 27°47' W 096°54'0 0.0
2017-Dec-08 09:00N 27°47' W 096°54'0 0.0
2017-Dec-08 08:30N 27°47' W 096°54'0 0.0
2017-Dec-08 08:00N 27°47' W 096°54'0 0.0
2017-Dec-08 07:30N 27°47' W 096°54'0 0.0
2017-Dec-08 07:00N 27°47' W 096°54'0 0.0
2017-Dec-08 06:30N 27°47' W 096°54'0 0.0
2017-Dec-08 06:00N 27°47' W 096°54'0 0.0
2017-Dec-08 05:30N 27°47' W 096°54'0 0.0
2017-Dec-08 05:00N 27°47' W 096°54'0 0.1
2017-Dec-08 04:30N 27°47' W 096°54'0 0.1
2017-Dec-08 04:00N 27°47' W 096°54'0 0.0
2017-Dec-08 03:30N 27°47' W 096°54'0 0.0
2017-Dec-08 03:00N 27°47' W 096°54'0 0.0
2017-Dec-08 02:30N 27°47' W 096°54'0 0.0
2017-Dec-08 02:00N 27°47' W 096°54'0 0.0
2017-Dec-08 01:30N 27°47' W 096°54'0 0.0
2017-Dec-08 01:00N 27°47' W 096°54'0 0.0
2017-Dec-08 00:30N 27°47' W 096°54'0 0.1
2017-Dec-08 00:00N 27°47' W 096°54'0 0.1
2017-Dec-07 23:30N 27°47' W 096°54'0 0.0
2017-Dec-07 23:00N 27°47' W 096°54'0 0.2
2017-Dec-07 22:30N 27°47' W 096°54'0 0.9
2017-Dec-07 21:59N 27°48' W 096°54'1 1.9
2017-Dec-07 21:29N 27°47' W 096°54'0 0.7
2017-Dec-07 21:00N 27°47' W 096°54'0 0.2
2017-Dec-07 20:30N 27°47' W 096°54'1 1.4
2017-Dec-07 20:00N 27°47' W 096°54'0 0.1
2017-Dec-07 19:30N 27°47' W 096°54'0 0.0
2017-Dec-07 19:00N 27°47' W 096°54'0 0.0
2017-Dec-07 18:30N 27°47' W 096°54'0 0.0
2017-Dec-07 17:59N 27°47' W 096°54'0 0.5
2017-Dec-07 17:29N 27°48' W 096°54'0 0.9
2017-Dec-07 16:59N 27°47' W 096°54'1 2.0
2017-Dec-07 16:30N 27°47' W 096°55'1 1.8
2017-Dec-07 16:00N 27°46' W 096°55'3 6.5
2017-Dec-07 15:30N 27°44' W 096°52'1 2.4
2017-Dec-07 14:59N 27°44' W 096°51'0 0.8
2017-Dec-07 14:29N 27°43' W 096°51'1 1.5
2017-Dec-07 13:59N 27°44' W 096°51'1 1.4
2017-Dec-07 13:30N 27°44' W 096°51'1 1.3
2017-Dec-07 13:00N 27°44' W 096°51'0 0.8
2017-Dec-07 12:29N 27°44' W 096°51'1 2.1
2017-Dec-07 11:59N 27°43' W 096°50'2 4.8
2017-Dec-07 11:30N 27°43' W 096°47'2 4.9
2017-Dec-07 11:00N 27°42' W 096°45'5 9.5
2017-Dec-07 10:29N 27°40' W 096°40'5 9.5
2017-Dec-07 10:00N 27°38' W 096°35'5 9.9
2017-Dec-07 09:30N 27°35' W 096°30'611.9
2017-Dec-07 08:59N 27°32' W 096°24'611.7
2017-Dec-07 08:29N 27°29' W 096°19'  
2017-Dec-03 09:12N 26°07' W 079°21'  
Track history (hours):
 
Tides and Currents Weather Stations Pressure Air Temp Water Temp Dewpoint Dewpoint Depression Visibility Wind Speed Wind Dir Waves Ship Positions

Atlantic Legend

Last reported at 2017-Dec-11 04:14 UTC. Time now 2017-Dec-13 03:39 UTC.
Position N 27°50' W 096°55'.

Length 229 m; draft 9.2 m.

Type: Other ship. MMSI: 351538000.

Date/timePositionNaut miles runAvg speedWind from/ knotsBaromVisibWave heightAir tempDewpointWater temp
2017-Dec-11 04:14N 27°50' W 096°55'0 0.0
2017-Dec-11 03:59N 27°50' W 096°55'0 0.0
2017-Dec-11 03:29N 27°50' W 096°55'0 0.0
2017-Dec-11 02:59N 27°50' W 096°55'0 0.0
2017-Dec-11 02:29N 27°50' W 096°55'0 0.0
2017-Dec-11 01:59N 27°50' W 096°55'0 0.0
2017-Dec-11 01:29N 27°50' W 096°55'0 0.0
2017-Dec-11 00:59N 27°50' W 096°55'0 0.0
2017-Dec-11 00:26N 27°50' W 096°55'0 0.0
2017-Dec-10 23:59N 27°50' W 096°55'0 0.0
2017-Dec-10 23:29N 27°50' W 096°55'0 0.0
2017-Dec-10 22:59N 27°50' W 096°55'0 0.0
2017-Dec-10 22:29N 27°50' W 096°55'0 0.0
2017-Dec-10 21:59N 27°50' W 096°55'0 0.0
2017-Dec-10 21:29N 27°50' W 096°55'0 0.0
2017-Dec-10 20:59N 27°50' W 096°55'0 0.0
2017-Dec-10 20:29N 27°50' W 096°55'0 0.0
2017-Dec-10 19:59N 27°50' W 096°55'0 0.0
2017-Dec-10 19:29N 27°50' W 096°55'0 0.0
2017-Dec-10 18:59N 27°50' W 096°55'0 0.0
2017-Dec-10 16:08N 27°50' W 096°55'0 0.0
2017-Dec-10 15:59N 27°50' W 096°55'0 0.0
2017-Dec-10 15:26N 27°50' W 096°55'0 0.0
2017-Dec-10 14:59N 27°50' W 096°55'0 0.0
2017-Dec-10 14:29N 27°50' W 096°55'0 0.0
2017-Dec-10 13:59N 27°50' W 096°55'0 0.0
2017-Dec-10 13:29N 27°50' W 096°55'0 0.0
2017-Dec-10 12:56N 27°50' W 096°55'0 0.0
2017-Dec-10 12:29N 27°50' W 096°55'0 0.0
2017-Dec-10 11:59N 27°50' W 096°55'0 0.0
2017-Dec-10 11:29N 27°50' W 096°55'0 0.0
2017-Dec-10 10:59N 27°50' W 096°55'0 0.0
2017-Dec-10 10:29N 27°50' W 096°55'0 0.0
2017-Dec-10 09:59N 27°50' W 096°55'0 0.0
2017-Dec-10 09:29N 27°50' W 096°55'0 0.0
2017-Dec-10 08:56N 27°51' W 096°55'0 0.0
2017-Dec-10 08:29N 27°50' W 096°55'0 0.0
2017-Dec-10 07:59N 27°50' W 096°55'0 0.0
2017-Dec-10 07:29N 27°50' W 096°55'0 0.0
2017-Dec-10 06:56N 27°50' W 096°55'0 0.0
2017-Dec-10 06:29N 27°50' W 096°55'0 0.0
2017-Dec-10 05:59N 27°50' W 096°55'0 0.0
2017-Dec-10 05:29N 27°50' W 096°55'0 0.0
2017-Dec-10 04:59N 27°50' W 096°55'0 0.0
2017-Dec-10 04:29N 27°51' W 096°55'0 0.3
2017-Dec-10 03:59N 27°50' W 096°55'1 1.2
2017-Dec-10 03:30N 27°50' W 096°56'3 5.5
2017-Dec-10 02:59N 27°48' W 096°58'5 9.4
2017-Dec-10 02:29N 27°50' W 097°03'4 9.3
2017-Dec-10 02:00N 27°50' W 097°08'510.3
2017-Dec-10 01:29N 27°49' W 097°14'611.6
2017-Dec-10 01:00N 27°49' W 097°20'4 7.9
2017-Dec-10 00:30N 27°49' W 097°25'2 3.6
2017-Dec-09 23:59N 27°49' W 097°27'1 2.0
2017-Dec-09 23:29N 27°49' W 097°28'0 0.0
2017-Dec-09 22:59N 27°49' W 097°28'0 0.0
2017-Dec-09 22:11N 27°49' W 097°28'0 0.0
2017-Dec-09 21:59N 27°49' W 097°28'0 0.0
2017-Dec-09 21:29N 27°49' W 097°28'0 0.0
2017-Dec-09 20:59N 27°49' W 097°28'0 0.0
2017-Dec-09 20:29N 27°49' W 097°28'0 0.0
2017-Dec-09 14:41N 27°49' W 097°28'0 0.0
2017-Dec-09 14:29N 27°49' W 097°28'0 0.0
2017-Dec-09 13:56N 27°49' W 097°28'0 0.0
2017-Dec-09 13:29N 27°49' W 097°28'0 0.0
2017-Dec-09 12:59N 27°49' W 097°28'0 0.0
2017-Dec-09 12:29N 27°49' W 097°28'0 0.0
2017-Dec-09 11:59N 27°49' W 097°28'0 0.0
2017-Dec-09 11:29N 27°49' W 097°28'0 0.0
2017-Dec-09 10:59N 27°49' W 097°28'0 0.0
2017-Dec-09 10:29N 27°49' W 097°28'0 0.0
2017-Dec-09 09:59N 27°49' W 097°28'0 0.0
2017-Dec-09 09:17N 27°49' W 097°28'0 0.0
2017-Dec-09 08:59N 27°49' W 097°28'0 0.0
2017-Dec-09 08:29N 27°49' W 097°28'0 0.0
2017-Dec-09 07:56N 27°49' W 097°28'0 0.0
2017-Dec-09 07:08N 27°49' W 097°28'0 0.0
2017-Dec-09 06:56N 27°49' W 097°28'0 0.0
2017-Dec-09 06:29N 27°49' W 097°28'0 0.0
2017-Dec-09 05:59N 27°49' W 097°28'0 0.0
2017-Dec-09 05:26N 27°49' W 097°28'0 0.0
2017-Dec-09 04:59N 27°49' W 097°28'0 0.0
2017-Dec-09 04:29N 27°49' W 097°28'0 0.0
2017-Dec-09 03:59N 27°49' W 097°28'0 0.0
2017-Dec-09 03:29N 27°49' W 097°28'0 0.0
2017-Dec-09 02:59N 27°49' W 097°28'0 0.0
2017-Dec-09 02:29N 27°49' W 097°28'0 0.0
2017-Dec-09 01:59N 27°49' W 097°28'0 0.0
2017-Dec-09 01:26N 27°49' W 097°28'0 0.0
2017-Dec-09 00:59N 27°49' W 097°28'0 0.0
2017-Dec-09 00:29N 27°49' W 097°28'0 0.0
2017-Dec-08 23:56N 27°49' W 097°28'0 0.2
2017-Dec-08 23:29N 27°49' W 097°28'2 3.0
2017-Dec-08 22:59N 27°50' W 097°30'1 2.8
2017-Dec-08 22:30N 27°49' W 097°28'5 4.9
2017-Dec-08 21:24N 27°49' W 097°22'511.8
2017-Dec-08 21:00N 27°49' W 097°17'5 9.5
2017-Dec-08 20:29N 27°49' W 097°11'4 8.6
2017-Dec-08 19:59N 27°50' W 097°06'3 7.1
2017-Dec-08 19:29N 27°50' W 097°02'611.7
2017-Dec-08 18:59N 27°48' W 096°56'2 4.4
2017-Dec-08 18:30N 27°47' W 096°54'0 0.2
2017-Dec-08 18:00N 27°47' W 096°54'0 0.0
2017-Dec-08 17:30N 27°47' W 096°54'0 0.0
2017-Dec-08 16:54N 27°47' W 096°54'0 0.0
2017-Dec-08 16:30N 27°47' W 096°54'0 0.0
2017-Dec-08 16:00N 27°47' W 096°54'0 0.0
2017-Dec-08 15:30N 27°47' W 096°54'0 0.0
2017-Dec-08 15:00N 27°47' W 096°54'0 0.0
2017-Dec-08 14:30N 27°47' W 096°54'0 0.1
2017-Dec-08 14:00N 27°47' W 096°54'0 0.0
2017-Dec-08 13:30N 27°47' W 096°54'0 0.0
2017-Dec-08 13:00N 27°47' W 096°54'0 0.0
2017-Dec-08 12:30N 27°47' W 096°54'0 0.0
2017-Dec-08 12:00N 27°47' W 096°54'0 0.0
2017-Dec-08 11:30N 27°47' W 096°54'0 0.0
2017-Dec-08 11:00N 27°47' W 096°54'0 0.0
2017-Dec-08 10:30N 27°47' W 096°54'0 0.0
2017-Dec-08 10:00N 27°47' W 096°54'0 0.0
2017-Dec-08 09:30N 27°47' W 096°54'0 0.0
2017-Dec-08 09:00N 27°47' W 096°54'0 0.0
2017-Dec-08 08:30N 27°47' W 096°54'0 0.0
2017-Dec-08 08:00N 27°47' W 096°54'0 0.0
2017-Dec-08 07:30N 27°47' W 096°54'0 0.0
2017-Dec-08 07:00N 27°47' W 096°54'0 0.0
2017-Dec-08 06:30N 27°47' W 096°54'0 0.0
2017-Dec-08 06:00N 27°47' W 096°54'0 0.0
2017-Dec-08 05:30N 27°47' W 096°54'0 0.0
2017-Dec-08 05:00N 27°47' W 096°54'0 0.1
2017-Dec-08 04:30N 27°47' W 096°54'0 0.1
2017-Dec-08 04:00N 27°47' W 096°54'0 0.0
2017-Dec-08 03:30N 27°47' W 096°54'0 0.0
2017-Dec-08 03:00N 27°47' W 096°54'0 0.0
2017-Dec-08 02:30N 27°47' W 096°54'0 0.0
2017-Dec-08 02:00N 27°47' W 096°54'0 0.0
2017-Dec-08 01:30N 27°47' W 096°54'0 0.0
2017-Dec-08 01:00N 27°47' W 096°54'0 0.0
2017-Dec-08 00:30N 27°47' W 096°54'0 0.1
2017-Dec-08 00:00N 27°47' W 096°54'0 0.1
2017-Dec-07 23:30N 27°47' W 096°54'0 0.0
2017-Dec-07 23:00N 27°47' W 096°54'0 0.2
2017-Dec-07 22:30N 27°47' W 096°54'0 0.9
2017-Dec-07 21:59N 27°48' W 096°54'1 1.9
2017-Dec-07 21:29N 27°47' W 096°54'0 0.7
2017-Dec-07 21:00N 27°47' W 096°54'0 0.2
2017-Dec-07 20:30N 27°47' W 096°54'1 1.4
2017-Dec-07 20:00N 27°47' W 096°54'0 0.1
2017-Dec-07 19:30N 27°47' W 096°54'0 0.0
2017-Dec-07 19:00N 27°47' W 096°54'0 0.0
2017-Dec-07 18:30N 27°47' W 096°54'0 0.0
2017-Dec-07 17:59N 27°47' W 096°54'0 0.5
2017-Dec-07 17:29N 27°48' W 096°54'0 0.9
2017-Dec-07 16:59N 27°47' W 096°54'1 2.0
2017-Dec-07 16:30N 27°47' W 096°55'1 1.8
2017-Dec-07 16:00N 27°46' W 096°55'3 6.5
2017-Dec-07 15:30N 27°44' W 096°52'1 2.4
2017-Dec-07 14:59N 27°44' W 096°51'0 0.8
2017-Dec-07 14:29N 27°43' W 096°51'1 1.5
2017-Dec-07 13:59N 27°44' W 096°51'1 1.4
2017-Dec-07 13:30N 27°44' W 096°51'1 1.3
2017-Dec-07 13:00N 27°44' W 096°51'0 0.8
2017-Dec-07 12:29N 27°44' W 096°51'1 2.1
2017-Dec-07 11:59N 27°43' W 096°50'2 4.8
2017-Dec-07 11:30N 27°43' W 096°47'2 4.9
2017-Dec-07 11:00N 27°42' W 096°45'5 9.5
2017-Dec-07 10:29N 27°40' W 096°40'5 9.5
2017-Dec-07 10:00N 27°38' W 096°35'5 9.9
2017-Dec-07 09:30N 27°35' W 096°30'611.9
2017-Dec-07 08:59N 27°32' W 096°24'611.7
2017-Dec-07 08:29N 27°29' W 096°19'  
2017-Dec-03 09:12N 26°07' W 079°21'  

Dump ship's entire track history